createdAt,value
2018-06-27T00:00:39.469Z,4.90
2018-06-27T00:05:42.874Z,5.27
2018-06-27T00:10:46.320Z,4.90
2018-06-27T00:15:49.914Z,4.50
2018-06-27T00:20:53.396Z,4.15
2018-06-27T00:25:56.939Z,3.98
2018-06-27T00:31:02.245Z,4.20
2018-06-27T00:36:05.762Z,5.45
2018-06-27T00:41:09.185Z,4.25
2018-06-27T00:46:12.629Z,4.92
2018-06-27T00:51:16.001Z,5.58
2018-06-27T00:56:19.445Z,5.70
2018-06-27T01:01:22.999Z,5.00
2018-06-27T01:06:26.331Z,5.60
2018-06-27T01:11:29.803Z,5.00
2018-06-27T01:16:34.902Z,5.65
2018-06-27T01:21:46.235Z,5.67
2018-06-27T01:26:56.055Z,5.60
2018-06-27T01:31:59.446Z,5.85
2018-06-27T01:37:04.477Z,5.90
2018-06-27T01:42:08.216Z,5.60
2018-06-27T01:47:11.631Z,5.40
2018-06-27T01:52:15.263Z,5.62
2018-06-27T01:57:18.693Z,5.75
2018-06-27T02:02:22.394Z,6.00
2018-06-27T02:07:25.819Z,5.70
2018-06-27T02:12:29.226Z,5.80
2018-06-27T02:17:33.184Z,6.50
2018-06-27T02:22:36.761Z,6.07
2018-06-27T02:27:40.289Z,6.00
2018-06-27T02:32:43.892Z,6.20
2018-06-27T02:37:47.535Z,6.90
2018-06-27T02:42:50.982Z,6.10
2018-06-27T02:47:55.147Z,6.20
2018-06-27T02:52:58.559Z,5.90
2018-06-27T02:58:02.212Z,5.75
2018-06-27T03:03:05.852Z,6.75
2018-06-27T03:08:11.684Z,6.55
2018-06-27T03:13:15.107Z,7.20
2018-06-27T03:18:18.547Z,7.47
2018-06-27T03:23:22.004Z,6.70
2018-06-27T03:28:25.854Z,7.22
2018-06-27T03:33:29.272Z,6.53
2018-06-27T03:38:32.822Z,6.95
2018-06-27T03:43:36.830Z,7.87
2018-06-27T03:48:40.599Z,8.10
2018-06-27T03:53:49.312Z,8.50
2018-06-27T03:58:53.102Z,7.97
2018-06-27T04:03:57.165Z,7.50
2018-06-27T04:09:00.710Z,7.78
2018-06-27T04:14:03.833Z,7.20
2018-06-27T04:19:07.321Z,7.30
2018-06-27T04:24:10.739Z,7.17
2018-06-27T04:29:14.155Z,8.03
2018-06-27T04:34:19.834Z,7.97
2018-06-27T04:39:23.544Z,7.70
2018-06-27T04:44:26.991Z,7.50
2018-06-27T04:49:30.567Z,8.30
2018-06-27T04:54:34.314Z,8.20
2018-06-27T04:59:38.262Z,7.80
2018-06-27T05:04:41.762Z,7.60
2018-06-27T05:09:49.245Z,7.30
2018-06-27T05:14:52.706Z,8.00
2018-06-27T05:19:56.090Z,7.17
2018-06-27T05:24:59.645Z,8.10
2018-06-27T05:30:03.163Z,8.33
2018-06-27T05:35:06.822Z,8.43
2018-06-27T05:40:11.006Z,8.00
2018-06-27T05:45:16.404Z,8.85
2018-06-27T05:50:21.116Z,7.97
2018-06-27T05:55:24.592Z,8.80
2018-06-27T06:00:27.968Z,8.27
2018-06-27T06:05:31.504Z,7.40
2018-06-27T06:10:35.674Z,8.73
2018-06-27T06:15:39.217Z,8.25
2018-06-27T06:20:42.605Z,8.53
2018-06-27T06:25:46.530Z,8.50
2018-06-27T06:30:50.061Z,8.77
2018-06-27T06:35:55.310Z,8.05
2018-06-27T06:40:59.043Z,9.30
2018-06-27T06:46:03.920Z,7.72
2018-06-27T06:51:07.577Z,9.98
2018-06-27T06:56:12.072Z,8.90
2018-06-27T07:01:15.491Z,9.45
2018-06-27T07:06:18.931Z,8.00
2018-06-27T07:11:22.899Z,7.75
2018-06-27T07:16:26.442Z,7.13
2018-06-27T07:21:30.501Z,7.28
2018-06-27T07:26:34.073Z,6.72
2018-06-27T07:31:37.613Z,8.33
2018-06-27T07:36:41.132Z,5.60
2018-06-27T07:41:44.823Z,7.75
2018-06-27T07:46:48.483Z,6.10
2018-06-27T07:51:52.136Z,6.42
2018-06-27T07:56:55.808Z,6.10
2018-06-27T08:01:59.321Z,6.90
2018-06-27T08:07:04.067Z,6.95
2018-06-27T08:12:07.505Z,5.30
2018-06-27T08:17:11.587Z,6.05
2018-06-27T08:22:15.217Z,5.00
2018-06-27T08:27:19.113Z,5.78
2018-06-27T08:32:22.565Z,5.50
2018-06-27T08:37:25.929Z,5.60
2018-06-27T08:42:29.447Z,4.78
2018-06-27T08:47:32.961Z,7.50
2018-06-27T08:52:36.568Z,4.92
2018-06-27T08:57:41.768Z,5.33
2018-06-27T09:08:25.525Z,4.78
2018-06-27T09:13:30.474Z,5.45
2018-06-27T09:18:36.210Z,4.97
2018-06-27T09:23:39.730Z,3.90
2018-06-27T09:28:43.154Z,4.10
2018-06-27T09:33:46.616Z,5.65
2018-06-27T09:38:52.956Z,4.97
2018-06-27T09:43:56.575Z,4.85
2018-06-27T09:49:00.440Z,3.72
2018-06-27T09:54:04.082Z,4.58
2018-06-27T09:59:07.744Z,5.10
2018-06-27T10:04:11.320Z,4.03
2018-06-27T10:09:14.843Z,5.22
2018-06-27T10:14:18.493Z,3.58
2018-06-27T10:19:22.125Z,4.83
2018-06-27T10:25:39.566Z,4.30
2018-06-27T10:30:46.653Z,2.60
2018-06-27T10:35:55.855Z,3.80
2018-06-27T10:41:00.565Z,2.90
2018-06-27T10:46:04.098Z,2.90
2018-06-27T10:51:08.427Z,4.58
2018-06-27T10:56:14.756Z,2.52
2018-06-27T11:01:21.511Z,4.27
2018-06-27T11:06:25.223Z,2.30
2018-06-27T11:11:31.339Z,3.20
2018-06-27T11:16:36.980Z,3.10
2018-06-27T11:21:47.853Z,2.40
2018-06-27T11:26:52.352Z,2.98
2018-06-27T11:31:56.207Z,3.27
2018-06-27T11:37:00.102Z,2.50
2018-06-27T11:42:03.634Z,2.40
2018-06-27T11:47:07.107Z,2.10
2018-06-27T11:52:11.296Z,3.20
2018-06-27T11:57:20.378Z,4.72
2018-06-27T12:02:24.545Z,4.55
2018-06-27T12:07:31.979Z,2.20
2018-06-27T12:12:35.391Z,3.12
2018-06-27T12:17:38.904Z,2.37
2018-06-27T12:22:42.367Z,3.83
2018-06-27T12:27:45.806Z,2.50
2018-06-27T12:32:49.832Z,3.83
2018-06-27T12:37:54.890Z,2.73
2018-06-27T12:42:58.357Z,3.10
2018-06-27T12:48:01.992Z,2.50
2018-06-27T12:53:05.515Z,2.62
2018-06-27T12:58:09.083Z,3.83
2018-06-27T13:03:12.553Z,3.70
2018-06-27T13:08:15.979Z,3.90
2018-06-27T13:13:22.175Z,3.58
2018-06-27T13:18:26.527Z,3.10
2018-06-27T13:34:35.495Z,3.45
2018-06-27T13:39:39.836Z,2.98
2018-06-27T13:44:43.757Z,3.70
2018-06-27T13:49:47.820Z,2.33
2018-06-27T13:54:55.706Z,3.10
2018-06-27T14:00:00.331Z,3.30
2018-06-27T14:05:03.910Z,2.30
2018-06-27T14:10:07.349Z,2.50
2018-06-27T14:15:12.488Z,3.50
2018-06-27T14:20:15.907Z,3.98
2018-06-27T14:25:19.355Z,4.00
2018-06-27T14:30:23.355Z,3.80
2018-06-27T14:40:30.193Z,4.97
2018-06-27T14:45:34.168Z,3.20
2018-06-27T14:50:37.814Z,5.28
2018-06-27T14:55:42.100Z,4.40
2018-06-27T15:00:45.790Z,3.87
2018-06-27T15:05:49.276Z,2.30
2018-06-27T15:10:52.874Z,5.12
2018-06-27T15:15:57.142Z,6.83
2018-06-27T15:21:00.731Z,2.15
2018-06-27T15:26:05.933Z,1.50
2018-06-27T15:31:09.403Z,2.47
2018-06-27T15:36:12.952Z,1.77
2018-06-27T15:41:17.429Z,2.72
2018-06-27T15:46:20.909Z,2.20
2018-06-27T15:51:24.486Z,1.60
2018-06-27T15:56:27.987Z,3.08
2018-06-27T16:01:31.450Z,2.00
2018-06-27T16:06:34.980Z,2.12
2018-06-27T16:11:39.011Z,1.70
2018-06-27T16:16:42.403Z,2.30
2018-06-27T16:21:45.800Z,2.65
2018-06-27T16:26:49.354Z,1.90
2018-06-27T16:31:52.829Z,2.10
2018-06-27T16:36:57.210Z,1.87
2018-06-27T16:42:00.813Z,2.20
2018-06-27T16:47:05.171Z,1.80
2018-06-27T16:52:09.093Z,2.30
2018-06-27T16:57:12.795Z,2.35
2018-06-27T17:02:16.256Z,2.75
2018-06-27T17:07:20.513Z,2.17
2018-06-27T17:12:24.126Z,4.00
2018-06-27T17:17:27.757Z,2.20
2018-06-27T17:22:32.043Z,2.43
2018-06-27T17:27:36.272Z,2.30
2018-06-27T17:32:39.724Z,2.80
2018-06-27T17:37:43.360Z,2.73
2018-06-27T17:42:46.917Z,3.47
2018-06-27T17:47:50.446Z,2.92
2018-06-27T17:52:53.912Z,2.55
2018-06-27T17:57:57.673Z,2.90
2018-06-27T18:03:01.204Z,2.90
2018-06-27T18:08:05.600Z,3.30
2018-06-27T18:13:11.688Z,2.80
2018-06-27T18:18:15.932Z,2.70
2018-06-27T18:23:19.678Z,3.65
2018-06-27T18:28:23.176Z,7.22
2018-06-27T18:33:26.743Z,3.58
2018-06-27T18:38:30.291Z,4.50
2018-06-27T18:43:34.046Z,5.10
2018-06-27T18:48:37.615Z,2.97
2018-06-27T18:59:04.015Z,3.10
2018-06-27T19:04:16.281Z,3.50
2018-06-27T19:09:30.229Z,3.73
2018-06-27T19:14:34.643Z,2.95
2018-06-27T19:19:38.035Z,2.90
2018-06-27T19:24:42.444Z,3.13
2018-06-27T19:29:49.302Z,3.30
2018-06-27T19:34:52.779Z,3.50
2018-06-27T19:39:56.222Z,3.53
2018-06-27T19:44:59.628Z,3.00
2018-06-27T19:50:03.099Z,4.87
2018-06-27T19:55:10.096Z,2.73
2018-06-27T20:00:13.587Z,2.67
2018-06-27T20:05:17.949Z,3.10
2018-06-27T20:10:21.446Z,4.72
2018-06-27T20:15:26.187Z,2.90
2018-06-27T20:20:32.839Z,2.90
2018-06-27T20:25:39.427Z,3.72
2018-06-27T20:30:57.411Z,3.10
2018-06-27T20:36:07.602Z,3.00
2018-06-27T20:41:23.552Z,3.30
2018-06-27T20:46:27.137Z,4.00
2018-06-27T20:51:30.719Z,3.50
2018-06-27T20:56:34.144Z,3.22
2018-06-27T21:01:37.795Z,3.10
2018-06-27T21:06:41.283Z,5.90
2018-06-27T21:11:46.158Z,4.20
2018-06-27T21:16:49.664Z,3.57
2018-06-27T21:21:53.201Z,5.80
2018-06-27T21:26:58.079Z,3.47
2018-06-27T21:32:01.826Z,3.30
2018-06-27T21:37:05.553Z,3.55
2018-06-27T21:42:08.963Z,3.87
2018-06-27T21:47:16.687Z,7.37
2018-06-27T21:52:20.421Z,4.60
2018-06-27T21:57:24.520Z,3.45
2018-06-27T22:02:28.317Z,3.10
2018-06-27T22:07:33.174Z,3.12
2018-06-27T22:12:38.022Z,3.83
2018-06-27T22:17:42.142Z,4.00
2018-06-27T22:22:45.833Z,3.50
2018-06-27T22:27:49.288Z,3.60
2018-06-27T22:32:53.250Z,3.85
2018-06-27T22:37:56.754Z,5.90
2018-06-27T22:43:00.435Z,5.37
2018-06-27T22:48:04.553Z,4.30
2018-06-27T22:53:08.003Z,4.27
2018-06-27T22:58:11.480Z,3.33
2018-06-27T23:03:15.008Z,3.98
2018-06-27T23:08:18.630Z,4.20
2018-06-27T23:13:25.901Z,3.80
2018-06-27T23:18:29.399Z,3.43
2018-06-27T23:23:33.199Z,3.90
2018-06-27T23:28:37.828Z,3.70
2018-06-27T23:33:41.385Z,3.90
2018-06-27T23:38:44.871Z,3.70
2018-06-27T23:43:52.967Z,3.30
2018-06-27T23:48:57.017Z,3.80
2018-06-27T23:54:00.592Z,3.50
2018-06-27T23:59:04.069Z,3.77
